Time;durP1;ratioP1;P1;durP2;ratioP2;P2;SDS_P1;SDS_P2;PMS_P1;PMS_P2;Temp;Humidity;BMP_temperature;BMP_pressure;BME280_temperature;BME280_humidity;BME280_pressure;Samples;Min_cycle;Max_cycle;Signal;HPM_P1;HPM_P2
2021/04/05 00:00:16;;;;;;;30.17;10.48;;;-1.40;99.90;;;;;;5053487;28;20049;-85
2021/04/05 00:02:43;;;;;;;34.90;11.00;;;-1.50;99.90;;;;;;5052968;28;20124;-85
2021/04/05 00:05:12;;;;;;;30.42;10.73;;;-1.50;99.90;;;;;;5052919;28;20076;-85
2021/04/05 00:07:41;;;;;;;21.65;10.43;;;-1.50;99.90;;;;;;5055400;28;20092;-85
2021/04/05 00:10:12;;;;;;;29.20;10.55;;;-1.50;99.90;;;;;;5066467;28;20053;-84
2021/04/05 00:12:38;;;;;;;22.27;10.00;;;-1.50;99.90;;;;;;5054727;28;20053;-85
2021/04/05 00:15:07;;;;;;;20.90;10.13;;;-1.60;99.90;;;;;;5055035;28;20091;-85
2021/04/05 00:17:36;;;;;;;25.70;10.18;;;-1.50;99.90;;;;;;5052877;28;20056;-85
2021/04/05 00:20:23;;;;;;;29.70;11.18;;;-1.50;99.90;;;;;;5060172;28;20141;-85
2021/04/05 00:22:49;;;;;;;29.02;9.55;;;-1.50;99.90;;;;;;5072916;28;20534;-85
2021/04/05 00:25:16;;;;;;;20.52;10.70;;;-1.50;99.90;;;;;;5073635;28;20044;-84
2021/04/05 00:27:42;;;;;;;30.05;10.73;;;-1.50;99.90;;;;;;5073852;28;20128;-85
2021/04/05 00:30:19;;;;;;;29.38;10.32;;;-1.50;99.90;;;;;;5071535;28;20048;-84
2021/04/05 00:32:49;;;;;;;22.92;9.93;;;-1.40;99.90;;;;;;5073416;28;20048;-85
2021/04/05 00:35:18;;;;;;;36.25;10.95;;;-1.40;99.90;;;;;;5072378;28;20421;-85
2021/04/05 00:37:45;;;;;;;30.85;10.85;;;-1.40;99.90;;;;;;5055394;28;20045;-85
2021/04/05 00:40:15;;;;;;;31.65;11.25;;;-1.40;99.90;;;;;;5054818;28;20128;-85
2021/04/05 00:42:42;;;;;;;26.80;9.95;;;-1.40;99.90;;;;;;5054811;28;20135;-84
2021/04/05 00:45:12;;;;;;;24.42;9.90;;;-1.40;99.90;;;;;;5056163;28;20421;-85
2021/04/05 00:47:41;;;;;;;29.38;10.75;;;-1.50;99.90;;;;;;5056101;28;20103;-85
2021/04/05 00:50:10;;;;;;;26.25;11.05;;;-1.50;99.90;;;;;;5055757;28;20079;-85
2021/04/05 00:52:37;;;;;;;35.58;11.60;;;-1.40;99.90;;;;;;5057361;28;20136;-84
2021/04/05 00:55:06;;;;;;;35.95;11.73;;;-1.40;99.90;;;;;;5076541;28;20071;-84
2021/04/05 00:57:34;;;;;;;27.13;11.60;;;-1.30;99.90;;;;;;5076147;28;20052;-84
2021/04/05 01:00:01;;;;;;;34.15;12.23;;;-1.20;99.90;;;;;;5075693;28;20045;-84
2021/04/05 01:02:27;;;;;;;40.72;13.02;;;-1.10;99.90;;;;;;5076006;28;20091;-84
2021/04/05 01:04:54;;;;;;;36.47;13.02;;;-0.90;99.90;;;;;;5064683;28;20049;-83
2021/04/05 01:07:21;;;;;;;31.15;11.80;;;-0.80;99.90;;;;;;5055836;28;20045;-83
2021/04/05 01:09:47;;;;;;;41.90;12.73;;;-0.70;99.90;;;;;;5060204;28;20083;-83
2021/04/05 01:12:14;;;;;;;42.35;12.52;;;-0.60;99.90;;;;;;5056823;28;20059;-83
2021/04/05 01:14:40;;;;;;;42.78;14.93;;;-0.50;99.90;;;;;;5056154;28;20152;-83
2021/04/05 01:17:07;;;;;;;52.28;15.38;;;0.00;99.90;;;;;;5055729;28;20136;-82
2021/04/05 01:19:33;;;;;;;29.95;12.82;;;0.60;99.90;;;;;;5056701;28;20087;-82
2021/04/05 01:21:59;;;;;;;31.10;11.13;;;1.10;99.90;;;;;;5055611;28;20049;-82
2021/04/05 01:24:27;;;;;;;34.35;11.60;;;1.30;99.90;;;;;;5055927;28;20080;-82
2021/04/05 01:26:53;;;;;;;37.38;12.52;;;1.50;99.90;;;;;;5055750;28;20517;-82
2021/04/05 01:29:19;;;;;;;30.80;11.45;;;1.90;99.90;;;;;;5055491;28;20583;-82
2021/04/05 01:31:46;;;;;;;36.40;11.68;;;2.10;99.90;;;;;;5075375;28;20044;-82
2021/04/05 01:34:12;;;;;;;24.52;10.27;;;2.50;99.90;;;;;;5075770;28;20087;-82
2021/04/05 01:36:39;;;;;;;25.48;9.60;;;2.70;99.90;;;;;;5075622;28;20131;-82
2021/04/05 01:39:05;;;;;;;31.35;11.68;;;2.60;99.90;;;;;;5075282;28;20588;-82
2021/04/05 01:41:32;;;;;;;28.42;12.25;;;2.80;99.90;;;;;;5058008;28;20076;-82
2021/04/05 01:43:59;;;;;;;28.48;10.02;;;3.20;99.90;;;;;;5056858;28;20045;-82
2021/04/05 01:46:29;;;;;;;36.70;12.88;;;3.40;99.90;;;;;;5056285;28;20135;-82
2021/04/05 01:49:00;;;;;;;23.27;11.23;;;3.80;99.90;;;;;;5055378;28;20049;-82
2021/04/05 01:51:27;;;;;;;29.33;12.40;;;4.10;99.90;;;;;;5073355;28;20091;-82
2021/04/05 01:53:55;;;;;;;26.25;11.60;;;4.40;99.90;;;;;;5074767;28;20467;-82
2021/04/05 01:56:22;;;;;;;27.52;12.18;;;4.50;99.90;;;;;;5076379;28;20139;-82
2021/04/05 01:58:51;;;;;;;28.85;11.90;;;4.70;99.90;;;;;;5064409;28;20085;-82
2021/04/05 02:01:29;;;;;;;33.20;13.30;;;4.80;99.90;;;;;;5062733;28;20083;-82
2021/04/05 02:03:57;;;;;;;27.02;13.63;;;4.90;99.90;;;;;;5056209;28;20231;-81
2021/04/05 02:06:28;;;;;;;34.05;13.77;;;5.00;99.90;;;;;;5055096;28;20136;-81
2021/04/05 02:08:55;;;;;;;30.05;13.55;;;4.90;99.90;;;;;;5056773;28;20220;-82
2021/04/05 02:11:32;;;;;;;29.92;13.32;;;5.00;99.90;;;;;;5067448;28;20071;-82
2021/04/05 02:13:59;;;;;;;24.98;13.15;;;5.00;99.90;;;;;;5075795;28;20114;-82
2021/04/05 02:16:26;;;;;;;36.15;14.00;;;5.00;99.90;;;;;;5075986;28;20044;-82
2021/04/05 02:18:55;;;;;;;31.08;13.70;;;5.00;99.90;;;;;;5075756;28;20045;-82
2021/04/05 02:21:24;;;;;;;36.35;14.80;;;5.00;99.90;;;;;;5066025;28;20059;-82
2021/04/05 02:23:53;;;;;;;30.08;13.63;;;5.00;99.90;;;;;;5054736;28;20049;-81
2021/04/05 02:26:23;;;;;;;27.23;13.27;;;5.00;99.90;;;;;;5061917;28;20109;-81
2021/04/05 02:28:58;;;;;;;30.92;13.90;;;5.00;99.90;;;;;;5075956;28;20047;-82
2021/04/05 02:31:27;;;;;;;30.30;14.45;;;5.00;99.90;;;;;;5065783;28;20053;-82
2021/04/05 02:33:55;;;;;;;29.33;14.05;;;5.00;99.90;;;;;;5057250;28;20080;-81
2021/04/05 02:36:28;;;;;;;32.92;14.40;;;5.10;99.90;;;;;;5058435;28;20139;-82
2021/04/05 02:39:00;;;;;;;35.33;14.25;;;5.10;99.90;;;;;;5057306;28;20064;-82
2021/04/05 02:41:29;;;;;;;30.88;14.55;;;5.20;99.90;;;;;;5064162;28;20132;-82
2021/04/05 02:43:57;;;;;;;25.73;14.05;;;5.20;99.90;;;;;;5078121;28;20128;-82
2021/04/05 02:46:32;;;;;;;34.22;14.95;;;5.30;99.90;;;;;;5075687;28;20072;-81
2021/04/05 02:49:00;;;;;;;37.42;15.07;;;5.40;99.90;;;;;;5072956;28;20040;-83
2021/04/05 02:51:27;;;;;;;32.83;13.70;;;5.40;99.90;;;;;;5054264;28;20049;-81
2021/04/05 02:53:57;;;;;;;30.42;13.77;;;5.30;99.90;;;;;;5055284;28;20091;-81
2021/04/05 02:56:24;;;;;;;29.65;14.70;;;5.40;99.90;;;;;;5054325;28;20091;-81
2021/04/05 02:58:52;;;;;;;28.90;15.38;;;5.40;99.90;;;;;;5054150;28;20080;-82
2021/04/05 03:01:19;;;;;;;35.88;14.27;;;5.50;99.90;;;;;;5060788;28;20578;-82
2021/04/05 03:03:47;;;;;;;27.38;14.15;;;5.60;99.90;;;;;;5074204;28;20131;-82
2021/04/05 03:06:22;;;;;;;33.83;14.20;;;5.70;99.90;;;;;;5074693;28;20044;-83
2021/04/05 03:08:48;;;;;;;31.23;13.98;;;5.80;99.90;;;;;;5075164;28;20052;-82
2021/04/05 03:11:17;;;;;;;33.78;14.70;;;5.80;99.90;;;;;;5072760;28;20048;-84
2021/04/05 03:13:44;;;;;;;26.65;13.98;;;5.80;99.90;;;;;;5073243;28;20135;-81
2021/04/05 03:16:14;;;;;;;35.63;14.43;;;5.80;99.90;;;;;;5073719;28;20048;-83
2021/04/05 03:18:42;;;;;;;32.28;14.00;;;5.90;99.90;;;;;;5073523;28;20112;-82
2021/04/05 03:21:09;;;;;;;30.02;14.07;;;6.00;99.90;;;;;;5069374;28;20041;-82
2021/04/05 03:23:36;;;;;;;30.45;13.90;;;6.00;99.90;;;;;;5053623;28;20417;-83
2021/04/05 03:26:03;;;;;;;35.70;14.70;;;6.10;99.90;;;;;;5053450;28;20483;-83
2021/04/05 03:28:30;;;;;;;27.05;14.20;;;6.10;99.90;;;;;;5054493;28;20122;-83
2021/04/05 03:31:15;;;;;;;28.67;13.18;;;6.10;99.90;;;;;;5055474;28;20056;-83
2021/04/05 03:33:56;;;;;;;39.30;15.20;;;6.20;99.90;;;;;;5053535;28;20136;-83
2021/04/05 03:36:33;;;;;;;33.70;15.10;;;6.20;99.90;;;;;;5053396;28;20135;-84
2021/04/05 03:39:00;;;;;;;35.20;15.13;;;6.20;99.90;;;;;;5054398;28;20057;-84
2021/04/05 03:41:39;;;;;;;33.45;15.25;;;6.20;99.90;;;;;;5053181;28;20160;-82
2021/04/05 03:44:14;;;;;;;30.65;13.98;;;6.20;99.90;;;;;;5054352;28;20041;-84
2021/04/05 03:46:44;;;;;;;40.55;16.50;;;6.10;99.90;;;;;;5053036;28;20128;-83
2021/04/05 03:49:23;;;;;;;37.47;16.08;;;6.00;99.90;;;;;;5054910;28;20048;-84
2021/04/05 03:52:03;;;;;;;28.45;15.77;;;5.90;99.90;;;;;;5067726;28;20060;-83
2021/04/05 03:54:38;;;;;;;35.15;15.90;;;5.90;99.90;;;;;;5073130;28;20044;-82
2021/04/05 03:57:07;;;;;;;38.80;17.40;;;5.80;99.90;;;;;;5073410;28;20099;-84
2021/04/05 03:59:39;;;;;;;38.72;16.33;;;5.70;99.90;;;;;;5072970;28;20104;-83
2021/04/05 04:02:15;;;;;;;29.35;15.52;;;5.60;99.90;;;;;;5055313;28;20101;-84
2021/04/05 04:05:35;;;;;;;40.55;17.45;;;5.60;99.90;;;;;;5052794;28;20064;-84
2021/04/05 04:08:22;;;;;;;33.03;15.30;;;5.60;99.90;;;;;;5049937;28;20127;-84
2021/04/05 04:10:28;;;;;;;34.75;16.85;;;5.60;99.90;;;;;;5053026;28;20059;-83
2021/04/05 04:12:57;;;;;;;35.05;16.52;;;5.60;99.90;;;;;;5074846;28;20052;-83
2021/04/05 04:15:25;;;;;;;38.33;17.92;;;5.50;99.90;;;;;;5074017;28;20062;-83
2021/04/05 04:17:52;;;;;;;41.72;17.67;;;5.50;99.90;;;;;;5077271;28;20127;-82
2021/04/05 04:20:18;;;;;;;37.83;17.52;;;5.40;99.90;;;;;;5076728;28;20044;-83
2021/04/05 04:22:47;;;;;;;41.90;19.17;;;5.40;99.90;;;;;;5075537;28;20087;-82
2021/04/05 04:25:15;;;;;;;42.78;17.80;;;5.30;99.90;;;;;;5077888;28;20055;-83
2021/04/05 04:27:45;;;;;;;35.85;17.52;;;5.30;99.90;;;;;;5078154;28;20051;-82
2021/04/05 04:30:31;;;;;;;38.17;18.65;;;5.20;99.90;;;;;;5078081;28;20094;-82
2021/04/05 04:33:05;;;;;;;36.92;17.60;;;5.20;99.90;;;;;;5079143;28;20060;-82
2021/04/05 04:35:34;;;;;;;42.90;18.10;;;5.10;99.90;;;;;;5079255;28;20123;-82
2021/04/05 04:38:02;;;;;;;44.83;19.33;;;5.10;99.90;;;;;;5077785;28;20132;-81
2021/04/05 04:40:30;;;;;;;38.55;17.77;;;5.10;99.90;;;;;;5074151;28;20072;-83
2021/04/05 04:43:03;;;;;;;42.50;18.88;;;5.00;99.90;;;;;;5059003;28;20057;-82
2021/04/05 04:45:30;;;;;;;38.38;17.67;;;5.10;99.90;;;;;;5058865;28;20045;-82
2021/04/05 04:47:57;;;;;;;36.65;17.10;;;5.10;99.90;;;;;;5058550;28;20084;-83
2021/04/05 04:50:28;;;;;;;36.17;17.17;;;5.20;99.90;;;;;;5057832;28;20461;-83
2021/04/05 04:52:55;;;;;;;46.03;18.33;;;5.20;99.90;;;;;;5058300;28;20128;-84
2021/04/05 04:55:23;;;;;;;42.00;18.50;;;5.20;99.90;;;;;;5057922;28;20449;-83
2021/04/05 04:57:59;;;;;;;42.72;17.73;;;5.30;99.90;;;;;;5057512;28;20048;-82
2021/04/05 05:00:28;;;;;;;36.40;17.80;;;5.30;99.90;;;;;;5057035;28;20103;-84
2021/04/05 05:02:56;;;;;;;47.20;17.77;;;5.30;99.90;;;;;;5057489;28;20524;-83
2021/04/05 05:05:24;;;;;;;35.28;17.25;;;5.40;99.90;;;;;;5057164;28;20055;-83
2021/04/05 05:07:51;;;;;;;36.95;17.65;;;5.40;99.90;;;;;;5057044;28;20045;-84
2021/04/05 05:10:19;;;;;;;34.70;17.42;;;5.40;99.90;;;;;;5058117;28;20493;-83
2021/04/05 05:12:46;;;;;;;37.97;16.95;;;5.40;99.90;;;;;;5056913;28;20500;-84
2021/04/05 05:15:14;;;;;;;41.92;16.55;;;5.40;99.90;;;;;;5056860;28;20064;-82
2021/04/05 05:17:44;;;;;;;37.78;16.58;;;5.50;99.90;;;;;;5056946;28;20087;-82
2021/04/05 05:20:13;;;;;;;36.33;15.82;;;5.50;99.90;;;;;;5056872;28;20511;-82
2021/04/05 05:22:45;;;;;;;35.03;16.17;;;5.50;99.90;;;;;;5056675;28;20132;-84
2021/04/05 05:25:16;;;;;;;33.35;16.65;;;5.50;99.90;;;;;;5056575;28;20087;-85
2021/04/05 05:27:47;;;;;;;38.50;16.92;;;5.50;99.90;;;;;;5057083;28;20050;-84
2021/04/05 05:30:20;;;;;;;39.25;16.80;;;5.50;99.90;;;;;;5055828;28;20056;-84
2021/04/05 05:32:53;;;;;;;39.50;17.50;;;5.50;99.90;;;;;;5064573;28;20494;-82
2021/04/05 05:35:20;;;;;;;40.87;16.10;;;5.50;99.90;;;;;;5077525;28;20095;-83
2021/04/05 05:37:47;;;;;;;41.50;16.08;;;5.40;99.90;;;;;;5076467;28;20318;-82
2021/04/05 05:40:23;;;;;;;38.47;16.08;;;5.40;99.90;;;;;;5076081;28;20080;-82
2021/04/05 05:43:11;;;;;;;35.47;16.02;;;5.40;99.90;;;;;;5077761;28;20059;-84
2021/04/05 05:45:56;;;;;;;34.45;15.32;;;5.40;99.90;;;;;;5075693;28;20127;-83
2021/04/05 05:48:43;;;;;;;32.30;15.65;;;5.40;99.90;;;;;;5061859;28;20049;-82
2021/04/05 05:51:46;;;;;;;35.10;14.48;;;5.40;99.90;;;;;;5071250;28;20474;-82
2021/04/05 05:54:33;;;;;;;34.35;14.40;;;5.40;99.90;;;;;;5067404;28;20053;-82
2021/04/05 05:57:21;;;;;;;34.92;14.57;;;5.50;99.90;;;;;;5063248;28;20055;-82
2021/04/05 06:00:08;;;;;;;30.98;14.60;;;5.50;99.90;;;;;;5060135;28;20057;-82
2021/04/05 06:02:40;;;;;;;29.80;14.40;;;5.50;99.90;;;;;;5056355;28;20045;-82
2021/04/05 06:05:17;;;;;;;35.53;13.90;;;5.50;99.90;;;;;;5057619;28;20052;-82
2021/04/05 06:07:55;;;;;;;34.00;14.07;;;5.60;99.90;;;;;;5058384;28;20049;-82
2021/04/05 06:10:45;;;;;;;31.80;13.73;;;5.60;99.90;;;;;;5055796;28;20049;-82
2021/04/05 06:13:41;;;;;;;30.60;13.85;;;5.60;99.90;;;;;;5055878;28;20053;-82
2021/04/05 06:16:19;;;;;;;35.25;14.52;;;5.70;99.90;;;;;;5055702;28;20088;-82
2021/04/05 06:19:16;;;;;;;31.00;13.57;;;5.80;99.90;;;;;;5055438;28;20049;-82
2021/04/05 06:22:25;;;;;;;25.67;14.95;;;5.80;99.90;;;;;;5055783;28;20136;-82
2021/04/05 06:25:02;;;;;;;33.10;13.85;;;5.80;99.90;;;;;;5057342;28;20049;-83
2021/04/05 06:27:52;;;;;;;30.23;13.70;;;5.90;99.90;;;;;;5073763;28;20524;-83
2021/04/05 06:30:25;;;;;;;31.55;14.20;;;5.90;99.90;;;;;;5075356;28;20485;-83
2021/04/05 06:32:56;;;;;;;24.25;13.38;;;6.00;99.90;;;;;;5075216;28;20508;-83
2021/04/05 06:35:45;;;;;;;33.40;14.27;;;6.00;99.90;;;;;;5076296;28;20547;-83
2021/04/05 06:38:31;;;;;;;32.85;14.07;;;6.10;99.90;;;;;;5065537;28;20056;-83
2021/04/05 06:41:22;;;;;;;34.65;14.07;;;6.20;99.90;;;;;;5062403;28;20048;-82
2021/04/05 06:44:08;;;;;;;33.05;13.48;;;6.30;99.90;;;;;;5057104;28;20049;-83
2021/04/05 06:47:12;;;;;;;35.78;13.88;;;6.30;99.90;;;;;;5065673;28;20404;-83
2021/04/05 06:50:23;;;;;;;30.35;13.23;;;6.30;99.90;;;;;;5057783;28;20076;-82
2021/04/05 06:52:58;;;;;;;30.23;12.73;;;6.40;99.90;;;;;;5056976;28;20049;-82
2021/04/05 06:55:31;;;;;;;29.73;12.88;;;6.50;99.90;;;;;;5060132;28;20386;-82
2021/04/05 06:58:26;;;;;;;24.63;11.98;;;6.50;99.90;;;;;;5076375;28;20059;-84
2021/04/05 07:01:28;;;;;;;28.05;12.70;;;6.50;99.90;;;;;;5073284;28;20069;-83
2021/04/05 07:04:41;;;;;;;27.75;11.80;;;6.60;99.90;;;;;;5067593;28;20040;-82
2021/04/05 07:07:07;;;;;;;24.80;12.68;;;6.70;99.90;;;;;;5063298;28;20131;-81
2021/04/05 07:10:07;;;;;;;27.58;12.25;;;6.80;99.90;;;;;;5063875;28;20096;-82
2021/04/05 07:12:50;;;;;;;29.05;12.30;;;6.90;99.90;;;;;;5064383;28;20087;-85
2021/04/05 07:15:53;;;;;;;26.70;13.18;;;7.00;99.90;;;;;;5076219;28;20055;-82
2021/04/05 07:18:57;;;;;;;26.65;11.05;;;7.00;99.90;;;;;;5075147;28;20066;-82
2021/04/05 07:22:05;;;;;;;24.98;11.73;;;7.20;99.90;;;;;;5074416;28;20070;-82
2021/04/05 07:25:08;;;;;;;28.45;12.50;;;7.20;99.90;;;;;;5065583;28;20069;-83
2021/04/05 07:27:42;;;;;;;22.02;10.30;;;7.20;99.90;;;;;;5058999;28;20087;-82
2021/04/05 07:30:24;;;;;;;21.75;11.10;;;7.20;99.90;;;;;;5056288;28;20086;-83
2021/04/05 07:32:57;;;;;;;23.13;11.32;;;7.20;99.90;;;;;;5056479;28;20490;-86
2021/04/05 07:35:29;;;;;;;26.33;11.95;;;7.30;99.90;;;;;;5055923;28;20075;-82
2021/04/05 07:38:12;;;;;;;26.75;11.13;;;7.40;99.90;;;;;;5057178;28;20051;-82
2021/04/05 07:41:06;;;;;;;22.70;10.80;;;7.40;99.90;;;;;;5068907;28;20076;-81
2021/04/05 07:43:35;;;;;;;25.30;11.13;;;7.60;99.90;;;;;;5054666;28;20045;-82
2021/04/05 07:46:11;;;;;;;27.40;10.80;;;7.80;99.90;;;;;;5053720;28;20493;-82
2021/04/05 07:48:43;;;;;;;20.75;10.50;;;7.90;99.90;;;;;;5054734;28;20045;-82
2021/04/05 07:51:19;;;;;;;21.20;11.30;;;8.00;99.90;;;;;;5055344;28;20053;-83
2021/04/05 07:53:58;;;;;;;26.52;11.20;;;8.10;99.90;;;;;;5056291;28;20084;-82
2021/04/05 07:56:31;;;;;;;22.17;11.02;;;8.10;99.90;;;;;;5058991;28;20410;-82
2021/04/05 07:59:25;;;;;;;23.87;10.87;;;8.00;99.90;;;;;;5070094;28;20124;-81
2021/04/05 08:02:10;;;;;;;28.60;11.60;;;8.00;99.90;;;;;;5074034;28;20051;-83
2021/04/05 08:05:20;;;;;;;25.55;11.07;;;8.00;99.90;;;;;;5062743;28;20053;-83
2021/04/05 08:07:52;;;;;;;26.13;10.70;;;8.00;99.90;;;;;;5053552;28;20045;-84
2021/04/05 08:10:22;;;;;;;22.50;10.40;;;8.10;99.90;;;;;;5054118;28;20079;-83
2021/04/05 08:12:54;;;;;;;24.23;10.63;;;8.10;99.90;;;;;;5055087;28;20060;-83
2021/04/05 08:15:27;;;;;;;18.27;10.38;;;8.20;99.90;;;;;;5056897;28;20485;-84
2021/04/05 08:18:11;;;;;;;21.97;10.37;;;8.30;99.90;;;;;;5061334;28;20080;-83
2021/04/05 08:20:46;;;;;;;20.35;11.00;;;8.20;99.90;;;;;;5062759;28;20358;-82
2021/04/05 08:23:25;;;;;;;27.05;10.73;;;8.10;99.90;;;;;;5070736;28;20051;-83
2021/04/05 08:26:00;;;;;;;26.80;11.18;;;8.00;99.90;;;;;;5074005;28;20055;-83
2021/04/05 08:28:51;;;;;;;19.10;10.38;;;8.00;99.90;;;;;;5073998;28;20079;-83
2021/04/05 08:31:54;;;;;;;25.58;11.88;;;8.00;99.90;;;;;;5064086;28;20548;-84
2021/04/05 08:34:30;;;;;;;27.48;11.32;;;7.90;99.90;;;;;;5056697;28;20064;-83
2021/04/05 08:37:21;;;;;;;25.63;11.38;;;7.80;99.90;;;;;;5064560;28;20049;-83
2021/04/05 08:40:00;;;;;;;24.17;10.75;;;7.90;99.90;;;;;;5070406;28;20048;-83
2021/04/05 08:42:50;;;;;;;26.00;11.43;;;8.00;99.90;;;;;;5073280;28;20057;-83
2021/04/05 08:45:24;;;;;;;21.08;10.75;;;8.10;99.90;;;;;;5062840;28;20128;-83
2021/04/05 08:48:03;;;;;;;26.92;10.63;;;8.20;99.90;;;;;;5053230;28;20092;-83
2021/04/05 08:50:34;;;;;;;23.92;10.07;;;8.30;99.90;;;;;;5053880;28;20057;-83
2021/04/05 08:53:02;;;;;;;21.95;9.90;;;8.40;99.90;;;;;;5053629;28;20136;-83
2021/04/05 08:55:31;;;;;;;21.65;10.88;;;8.40;99.90;;;;;;5053437;28;20049;-83
2021/04/05 08:58:11;;;;;;;19.90;9.82;;;8.40;99.90;;;;;;5054475;28;20501;-83
2021/04/05 09:00:43;;;;;;;22.13;10.07;;;8.30;99.90;;;;;;5075003;28;20137;-82
2021/04/05 09:03:12;;;;;;;25.48;10.68;;;8.30;99.90;;;;;;5068767;28;20136;-83
2021/04/05 09:05:42;;;;;;;23.85;10.52;;;8.30;99.90;;;;;;5077823;28;20064;-83
2021/04/05 09:08:11;;;;;;;26.50;10.27;;;8.50;99.90;;;;;;5078323;28;20113;-82
2021/04/05 09:11:05;;;;;;;21.73;9.55;;;8.70;99.90;;;;;;5076107;28;20105;-83
2021/04/05 09:13:42;;;;;;;16.92;10.07;;;8.60;99.90;;;;;;5057055;28;20099;-83
2021/04/05 09:16:24;;;;;;;22.17;10.30;;;8.50;99.90;;;;;;5056809;28;20072;-83
2021/04/05 09:19:18;;;;;;;23.33;10.90;;;8.20;99.90;;;;;;5057009;28;20064;-83
2021/04/05 09:21:56;;;;;;;43.03;11.60;;;8.30;99.90;;;;;;5056218;28;20128;-82
2021/04/05 09:25:01;;;;;;;23.50;10.55;;;8.20;99.90;;;;;;5056394;28;20041;-82
2021/04/05 09:28:05;;;;;;;22.08;10.38;;;8.30;99.90;;;;;;5061627;28;20051;-82
2021/04/05 09:30:53;;;;;;;18.45;10.50;;;8.20;99.90;;;;;;5056900;28;20052;-83
2021/04/05 09:33:47;;;;;;;22.52;10.40;;;8.20;99.90;;;;;;5072849;28;20081;-83
2021/04/05 09:36:52;;;;;;;22.83;10.68;;;8.10;99.90;;;;;;5076095;28;20049;-82
2021/04/05 09:39:27;;;;;;;22.48;10.73;;;8.00;99.90;;;;;;5077206;28;20049;-83
2021/04/05 09:42:21;;;;;;;22.85;10.52;;;8.00;99.90;;;;;;5073312;28;20115;-83
2021/04/05 09:45:15;;;;;;;18.35;10.23;;;8.10;99.90;;;;;;5065416;28;20052;-85
2021/04/05 09:48:12;;;;;;;27.20;10.43;;;8.20;99.90;;;;;;5057240;28;20071;-82
2021/04/05 09:51:16;;;;;;;19.70;9.55;;;8.40;99.90;;;;;;5070346;28;20052;-83
2021/04/05 09:54:14;;;;;;;20.83;10.10;;;8.60;99.90;;;;;;5076230;28;20094;-83
2021/04/05 09:56:48;;;;;;;24.75;10.88;;;8.60;99.90;;;;;;5076364;28;20548;-83
2021/04/05 09:59:22;;;;;;;21.30;10.25;;;8.60;99.90;;;;;;5076722;28;20052;-82
2021/04/05 10:01:51;;;;;;;19.63;10.13;;;8.70;99.90;;;;;;5064417;28;20481;-82
2021/04/05 10:04:28;;;;;;;22.65;10.23;;;8.70;99.90;;;;;;5057802;28;20091;-82
2021/04/05 10:06:57;;;;;;;19.38;10.40;;;8.60;99.90;;;;;;5059784;28;20105;-87
2021/04/05 10:09:30;;;;;;;24.17;11.95;;;8.60;99.90;;;;;;5057984;28;20049;-82
2021/04/05 10:11:59;;;;;;;;;;;8.50;99.90;;;;;;5061772;28;20092;-85
2021/04/05 10:14:26;;;;;;;18.23;10.18;;;8.30;99.90;;;;;;5058056;28;19921;-83
2021/04/05 10:16:55;;;;;;;21.95;10.52;;;8.00;99.90;;;;;;5060098;28;20056;-83
2021/04/05 10:19:31;;;;;;;22.38;11.18;;;7.80;99.90;;;;;;5058302;28;20139;-83
2021/04/05 10:22:04;;;;;;;22.75;11.30;;;7.70;99.90;;;;;;5075881;28;20094;-83
2021/04/05 10:24:33;;;;;;;23.08;11.35;;;7.60;99.90;;;;;;5062501;28;20056;-83
2021/04/05 10:27:05;;;;;;;26.23;11.80;;;7.60;99.90;;;;;;5078569;28;20460;-82
2021/04/05 10:29:34;;;;;;;26.70;11.77;;;7.60;99.90;;;;;;5079333;28;20139;-83
2021/04/05 10:32:03;;;;;;;24.13;11.40;;;7.60;99.90;;;;;;5077387;28;20055;-83
2021/04/05 10:34:34;;;;;;;18.92;10.68;;;7.50;99.90;;;;;;5078624;28;20091;-83
2021/04/05 10:37:17;;;;;;;23.92;11.25;;;7.40;99.90;;;;;;5078208;28;20052;-83
2021/04/05 10:39:52;;;;;;;23.55;11.00;;;7.40;99.90;;;;;;5076076;28;20049;-83
2021/04/05 10:42:23;;;;;;;21.85;12.07;;;7.40;99.90;;;;;;5055390;28;20049;-83
2021/04/05 10:44:57;;;;;;;23.92;11.73;;;7.30;99.90;;;;;;5056340;28;20115;-83
2021/04/05 10:47:30;;;;;;;18.52;10.48;;;7.30;99.90;;;;;;5055253;28;20087;-83
2021/04/05 10:49:59;;;;;;;19.98;11.55;;;7.20;99.90;;;;;;5058164;28;20053;-82
2021/04/05 10:52:33;;;;;;;23.77;11.32;;;7.10;99.90;;;;;;5059365;28;20109;-82
2021/04/05 10:55:01;;;;;;;20.40;11.10;;;7.10;99.90;;;;;;5058439;28;20049;-82
2021/04/05 10:57:34;;;;;;;22.42;11.27;;;7.00;99.90;;;;;;5058926;28;20053;-82
2021/04/05 11:00:14;;;;;;;25.98;12.02;;;6.90;99.90;;;;;;5057935;28;20107;-82
2021/04/05 11:02:54;;;;;;;19.63;11.75;;;6.90;99.90;;;;;;5077768;28;20574;-82
2021/04/05 11:05:23;;;;;;;19.88;11.43;;;7.00;99.90;;;;;;5077620;28;20467;-82
2021/04/05 11:07:57;;;;;;;23.75;11.40;;;6.90;99.90;;;;;;5062449;28;20045;-82
2021/04/05 11:10:28;;;;;;;20.42;10.52;;;6.90;99.90;;;;;;5072550;28;20047;-82
2021/04/05 11:12:57;;;;;;;25.95;12.32;;;6.90;99.90;;;;;;5076253;28;20497;-82
2021/04/05 11:15:27;;;;;;;20.92;12.18;;;6.80;99.90;;;;;;5075373;28;20048;-81
2021/04/05 11:17:56;;;;;;;18.05;10.90;;;7.00;99.90;;;;;;5073478;28;20059;-81
2021/04/05 11:20:29;;;;;;;20.65;11.63;;;6.90;99.90;;;;;;5072400;28;20075;-81
2021/04/05 11:23:03;;;;;;;15.65;10.85;;;6.90;99.90;;;;;;5054165;28;20128;-81
2021/04/05 11:25:31;;;;;;;;;;;6.90;99.90;;;;;;5055980;28;20045;-81
2021/04/05 11:28:21;;;;;;;26.10;14.18;;;6.90;99.90;;;;;;5053902;28;19921;-81
2021/04/05 11:30:49;;;;;;;26.20;12.70;;;6.90;99.90;;;;;;5057845;28;20123;-81
2021/04/05 11:33:25;;;;;;;17.02;10.57;;;7.00;99.90;;;;;;5060781;28;20055;-81
2021/04/05 11:35:53;;;;;;;21.25;11.13;;;7.00;99.90;;;;;;5070206;28;20048;-80
2021/04/05 11:38:21;;;;;;;21.02;11.00;;;6.90;99.90;;;;;;5073827;28;20071;-81
2021/04/05 11:40:54;;;;;;;19.38;11.30;;;6.80;99.90;;;;;;5072051;28;20075;-80
2021/04/05 11:43:26;;;;;;;18.00;11.35;;;6.70;99.90;;;;;;5074555;28;20094;-80
2021/04/05 11:46:05;;;;;;;15.65;10.40;;;6.60;99.90;;;;;;5073632;28;20051;-80
2021/04/05 11:48:31;;;;;;;16.88;10.88;;;6.50;99.90;;;;;;5069440;28;20077;-80
2021/04/05 11:50:59;;;;;;;13.60;10.02;;;6.50;99.90;;;;;;5053759;28;20049;-80
2021/04/05 11:53:59;;;;;;;17.42;10.70;;;6.50;99.90;;;;;;5052884;28;20060;-81
2021/04/05 11:56:28;;;;;;;14.80;10.23;;;6.40;99.90;;;;;;5062127;28;20413;-80
2021/04/05 11:59:12;;;;;;;13.75;9.60;;;6.50;99.90;;;;;;5072623;28;20425;-81
2021/04/05 12:01:49;;;;;;;14.60;9.55;;;6.40;99.90;;;;;;5073204;28;20123;-80
2021/04/05 12:04:23;;;;;;;14.23;9.88;;;6.50;99.90;;;;;;5073255;28;20414;-81
2021/04/05 12:07:09;;;;;;;12.93;8.85;;;6.50;99.90;;;;;;5069532;28;20468;-80
2021/04/05 12:09:54;;;;;;;10.38;8.45;;;6.50;99.90;;;;;;5062837;28;20040;-79
2021/04/05 12:12:28;;;;;;;11.77;8.55;;;6.40;99.90;;;;;;5074272;28;20072;-80
2021/04/05 12:14:56;;;;;;;10.38;8.23;;;6.50;99.90;;;;;;5073904;28;20498;-80
2021/04/05 12:17:24;;;;;;;14.90;8.50;;;6.50;99.90;;;;;;5073197;28;20075;-80
2021/04/05 12:19:54;;;;;;;13.32;9.27;;;6.60;99.90;;;;;;5073580;28;20050;-80
2021/04/05 12:22:31;;;;;;;8.70;6.85;;;6.60;99.90;;;;;;5073331;28;20059;-80
2021/04/05 12:25:00;;;;;;;7.00;6.20;;;6.60;99.90;;;;;;5073191;28;20131;-81
2021/04/05 12:27:37;;;;;;;6.78;6.03;;;6.40;99.90;;;;;;5073538;28;20102;-81
2021/04/05 12:30:24;;;;;;;8.05;6.78;;;6.30;99.90;;;;;;5072222;28;20127;-80
2021/04/05 12:32:53;;;;;;;8.77;6.40;;;6.30;99.90;;;;;;5073039;28;20515;-80
2021/04/05 12:35:22;;;;;;;7.15;6.35;;;6.30;99.90;;;;;;5073226;28;20493;-80
2021/04/05 12:38:04;;;;;;;7.30;6.05;;;6.30;99.90;;;;;;5073844;28;20068;-80
2021/04/05 12:40:36;;;;;;;6.80;6.07;;;6.10;99.90;;;;;;5046905;28;20414;-80
2021/04/05 12:43:15;;;;;;;2.67;2.47;;;6.00;99.90;;;;;;5046752;28;20057;-80
2021/04/05 12:45:51;;;;;;;2.45;1.60;;;5.20;99.90;;;;;;5038070;28;20068;-80
2021/04/05 12:48:23;;;;;;;1.30;1.20;;;4.50;99.90;;;;;;5041928;28;20049;-79
2021/04/05 12:50:55;;;;;;;1.20;0.80;;;3.80;99.90;;;;;;5045673;28;20071;-79
2021/04/05 12:53:26;;;;;;;2.65;0.85;;;3.40;99.90;;;;;;5046035;28;20092;-79
2021/04/05 12:55:54;;;;;;;0.70;0.70;;;3.00;99.90;;;;;;5036977;28;20140;-78
2021/04/05 12:58:34;;;;;;;1.35;0.60;;;2.60;99.90;;;;;;5056460;28;20087;-78
2021/04/05 13:01:03;;;;;;;9.20;4.60;;;2.20;99.90;;;;;;5054823;28;20084;-78
2021/04/05 13:03:44;;;;;;;1.63;0.60;;;1.90;99.90;;;;;;5050460;28;20394;-78
2021/04/05 13:06:13;;;;;;;0.93;0.93;;;1.70;99.90;;;;;;5053481;28;20089;-78
2021/04/05 13:08:51;;;;;;;3.35;2.83;;;1.50;99.90;;;;;;5055793;28;20454;-78
2021/04/05 13:11:23;;;;;;;2.30;2.15;;;1.40;99.90;;;;;;5055021;28;20056;-79
2021/04/05 13:14:10;;;;;;;1.10;1.10;;;1.30;99.90;;;;;;5047902;28;20124;-79
2021/04/05 13:16:53;;;;;;;1.00;1.00;;;1.30;99.90;;;;;;5042787;28;20124;-80
2021/04/05 13:19:26;;;;;;;2.63;1.10;;;1.20;99.90;;;;;;5057701;28;20491;-80